createdAt,value
2018-06-05T00:01:24.115Z,69.87
2018-06-05T00:03:52.491Z,70.57
2018-06-05T00:06:20.867Z,70.79
2018-06-05T00:08:49.240Z,70.97
2018-06-05T00:11:17.614Z,71.13
2018-06-05T00:13:46.017Z,71.50
2018-06-05T00:16:14.395Z,71.55
2018-06-05T00:18:42.764Z,71.34
2018-06-05T00:21:11.189Z,71.09
2018-06-05T00:23:39.586Z,70.95
2018-06-05T00:26:07.944Z,70.86
2018-06-05T00:28:36.312Z,70.64
2018-06-05T00:31:05.027Z,70.63
2018-06-05T00:33:33.395Z,70.74
2018-06-05T00:36:01.771Z,70.48
2018-06-05T00:38:30.151Z,70.27
2018-06-05T00:40:58.525Z,70.15
2018-06-05T00:43:26.902Z,70.27
2018-06-05T00:45:55.278Z,70.45
2018-06-05T00:48:23.658Z,70.64
2018-06-05T00:50:52.021Z,70.83
2018-06-05T00:53:20.394Z,70.79
2018-06-05T00:55:48.768Z,70.68
2018-06-05T00:58:17.139Z,70.81
2018-06-05T01:00:45.514Z,70.81
2018-06-05T01:03:13.892Z,70.72
2018-06-05T01:05:42.263Z,70.78
2018-06-05T01:08:10.655Z,70.73
2018-06-05T01:10:39.029Z,70.61
2018-06-05T01:13:07.413Z,70.80
2018-06-05T01:15:35.788Z,70.75
2018-06-05T01:18:04.162Z,70.74
2018-06-05T01:20:32.549Z,70.79
2018-06-05T01:23:01.090Z,70.70
2018-06-05T01:25:29.455Z,70.61
2018-06-05T01:27:57.823Z,70.58
2018-06-05T01:30:26.210Z,70.70
2018-06-05T01:32:54.584Z,70.58
2018-06-05T01:35:22.960Z,70.41
2018-06-05T01:37:51.354Z,70.47
2018-06-05T01:40:19.725Z,70.47
2018-06-05T01:42:48.111Z,70.51
2018-06-05T01:45:16.490Z,70.59
2018-06-05T01:47:44.858Z,70.75
2018-06-05T01:50:13.236Z,70.58
2018-06-05T01:52:41.607Z,70.54
2018-06-05T01:55:09.984Z,70.98
2018-06-05T01:57:38.355Z,71.51
2018-06-05T02:00:06.736Z,71.77
2018-06-05T02:02:35.115Z,72.14
2018-06-05T02:05:03.496Z,72.17
2018-06-05T02:07:31.878Z,72.64
2018-06-05T02:10:00.259Z,73.02
2018-06-05T02:12:28.644Z,73.25
2018-06-05T02:14:57.011Z,73.26
2018-06-05T02:17:25.390Z,73.34
2018-06-05T02:19:53.754Z,73.29
2018-06-05T02:22:22.131Z,73.36
2018-06-05T02:24:50.547Z,73.64
2018-06-05T02:27:18.923Z,73.78
2018-06-05T02:29:47.302Z,73.94
2018-06-05T02:32:15.721Z,73.99
2018-06-05T02:34:44.097Z,73.94
2018-06-05T02:37:12.453Z,74.44
2018-06-05T02:39:40.828Z,74.99
2018-06-05T02:42:09.206Z,75.04
2018-06-05T02:44:37.591Z,75.12
2018-06-05T02:47:05.973Z,75.26
2018-06-05T02:49:34.351Z,75.08
2018-06-05T02:52:03.635Z,75.31
2018-06-05T02:54:32.013Z,75.02
2018-06-05T02:57:00.391Z,75.16
2018-06-05T02:59:28.769Z,74.13
2018-06-05T03:01:57.130Z,73.93
2018-06-05T03:04:25.500Z,73.69
2018-06-05T03:06:53.864Z,73.66
2018-06-05T03:09:22.254Z,73.31
2018-06-05T03:11:50.634Z,73.22
2018-06-05T03:14:19.273Z,72.59
2018-06-05T03:16:47.649Z,71.89
2018-06-05T03:19:16.017Z,71.50
2018-06-05T03:21:44.382Z,71.34
2018-06-05T03:24:12.894Z,71.02
2018-06-05T03:26:41.306Z,70.99
2018-06-05T03:29:09.658Z,70.48
2018-06-05T03:31:38.039Z,70.07
2018-06-05T03:34:06.438Z,69.73
2018-06-05T03:36:34.773Z,69.28
2018-06-05T03:39:03.138Z,69.06
2018-06-05T03:41:31.487Z,68.96
2018-06-05T03:43:59.860Z,68.99
2018-06-05T03:46:28.229Z,68.85
2018-06-05T03:48:56.581Z,68.77
2018-06-05T03:51:24.944Z,69.12
2018-06-05T03:53:53.306Z,69.25
2018-06-05T03:56:21.677Z,69.54
2018-06-05T03:58:50.034Z,69.72
2018-06-05T04:01:18.616Z,70.11
2018-06-05T04:03:46.750Z,70.25
2018-06-05T04:06:15.118Z,70.44
2018-06-05T04:08:43.482Z,70.64
2018-06-05T04:11:11.835Z,71.08
2018-06-05T04:13:40.194Z,70.97
2018-06-05T04:16:08.555Z,71.38
2018-06-05T04:18:36.937Z,72.06
2018-06-05T04:21:05.299Z,71.70
2018-06-05T04:23:33.663Z,71.69
2018-06-05T04:26:02.019Z,71.90
2018-06-05T04:28:30.423Z,72.00
2018-06-05T04:30:58.787Z,71.87
2018-06-05T04:33:27.145Z,71.88
2018-06-05T04:35:55.507Z,71.92
2018-06-05T04:38:23.867Z,71.95
2018-06-05T04:40:52.228Z,71.68
2018-06-05T04:43:20.592Z,71.53
2018-06-05T04:45:48.953Z,71.40
2018-06-05T04:48:17.333Z,71.36
2018-06-05T04:50:45.692Z,71.55
2018-06-05T04:53:14.075Z,71.45
2018-06-05T04:55:42.419Z,71.08
2018-06-05T04:58:10.774Z,70.92
2018-06-05T05:00:39.130Z,70.94
2018-06-05T05:03:07.517Z,71.15
2018-06-05T05:05:35.899Z,71.32
2018-06-05T05:08:05.166Z,70.91
2018-06-05T05:10:33.533Z,71.03
2018-06-05T05:13:01.898Z,71.23
2018-06-05T05:15:30.252Z,70.89
2018-06-05T05:17:58.610Z,70.70
2018-06-05T05:20:27.992Z,70.12
2018-06-05T05:22:56.355Z,69.30
2018-06-05T05:25:25.593Z,68.97
2018-06-05T05:27:53.744Z,68.50
2018-06-05T05:30:22.133Z,67.43
2018-06-05T05:32:50.609Z,66.86
2018-06-05T05:35:19.832Z,66.84
2018-06-05T05:37:49.078Z,66.57
2018-06-05T05:40:16.702Z,66.54
2018-06-05T05:42:45.090Z,66.14
2018-06-05T05:45:15.089Z,65.80
2018-06-05T05:47:43.470Z,65.57
2018-06-05T05:50:11.832Z,65.30
2018-06-05T05:52:40.191Z,64.83
2018-06-05T05:55:08.556Z,64.11
2018-06-05T05:57:36.919Z,63.36
2018-06-05T06:00:05.291Z,62.85
2018-06-05T06:02:33.656Z,62.69
2018-06-05T06:05:02.008Z,62.05
2018-06-05T06:07:30.369Z,62.10
2018-06-05T06:09:58.728Z,61.73
2018-06-05T06:12:27.120Z,61.88
2018-06-05T06:14:55.476Z,62.01
2018-06-05T06:17:23.838Z,62.11
2018-06-05T06:19:52.227Z,61.79
2018-06-05T06:22:20.591Z,61.52
2018-06-05T06:24:48.953Z,61.43
2018-06-05T06:27:17.313Z,61.17
2018-06-05T06:29:45.679Z,60.23
2018-06-05T06:32:14.053Z,60.20
2018-06-05T06:34:42.407Z,60.08
2018-06-05T06:37:10.778Z,59.66
2018-06-05T06:39:39.167Z,59.32
2018-06-05T06:42:07.527Z,58.89
2018-06-05T06:44:35.901Z,58.83
2018-06-05T06:47:04.276Z,58.36
2018-06-05T06:49:32.634Z,58.07
2018-06-05T06:52:00.994Z,57.93
2018-06-05T06:54:29.378Z,57.22
2018-06-05T06:56:57.723Z,57.15
2018-06-05T06:59:26.090Z,56.40
2018-06-05T07:02:04.987Z,56.80
2018-06-05T07:04:33.297Z,55.83
2018-06-05T07:07:01.667Z,54.72
2018-06-05T07:09:30.030Z,54.77
2018-06-05T07:11:58.382Z,54.82
2018-06-05T07:14:26.743Z,54.42
2018-06-05T07:16:55.165Z,54.33
2018-06-05T07:19:23.536Z,54.70
2018-06-05T07:21:51.907Z,54.41
2018-06-05T07:24:20.279Z,54.53
2018-06-05T07:26:48.648Z,54.32
2018-06-05T07:29:17.014Z,54.36
2018-06-05T07:31:45.384Z,54.37
2018-06-05T07:34:13.740Z,53.61
2018-06-05T07:36:42.108Z,53.20
2018-06-05T07:39:10.473Z,52.83
2018-06-05T07:41:38.846Z,53.43
2018-06-05T07:44:07.216Z,53.33
2018-06-05T07:46:35.588Z,52.83
2018-06-05T07:49:04.063Z,51.38
2018-06-05T07:51:32.437Z,51.25
2018-06-05T07:54:00.806Z,51.24
2018-06-05T07:56:29.164Z,51.12
2018-06-05T07:58:57.527Z,51.07
2018-06-05T08:01:25.884Z,50.59
2018-06-05T08:03:54.294Z,50.65
2018-06-05T08:06:22.667Z,50.54
2018-06-05T08:08:51.040Z,50.47
2018-06-05T08:11:19.453Z,50.52
2018-06-05T08:13:47.845Z,50.74
2018-06-05T08:16:16.206Z,50.62
2018-06-05T08:18:44.568Z,50.04
2018-06-05T08:21:12.932Z,49.88
2018-06-05T08:23:41.298Z,50.14
2018-06-05T08:26:09.666Z,50.06
2018-06-05T08:28:38.027Z,49.39
2018-06-05T08:31:06.388Z,49.26
2018-06-05T08:33:34.746Z,49.19
2018-06-05T08:36:03.107Z,49.50
2018-06-05T08:38:31.480Z,49.29
2018-06-05T08:40:59.849Z,48.95
2018-06-05T08:43:28.217Z,49.01
2018-06-05T08:45:56.593Z,49.13
2018-06-05T08:48:24.958Z,49.17
2018-06-05T08:50:53.313Z,48.99
2018-06-05T08:53:21.698Z,48.95
2018-06-05T08:55:50.067Z,48.88
2018-06-05T08:58:18.422Z,49.29
2018-06-05T09:00:46.786Z,49.08
2018-06-05T09:03:15.179Z,49.26
2018-06-05T09:05:43.539Z,48.74
2018-06-05T09:08:11.910Z,48.68
2018-06-05T09:10:40.275Z,48.13
2018-06-05T09:13:08.841Z,48.03
2018-06-05T09:15:37.175Z,47.68
2018-06-05T09:18:05.534Z,47.81
2018-06-05T09:20:33.897Z,47.67
2018-06-05T09:23:02.270Z,47.82
2018-06-05T09:25:30.635Z,47.66
2018-06-05T09:27:59.000Z,47.45
2018-06-05T09:30:27.371Z,47.38
2018-06-05T09:32:55.888Z,47.14
2018-06-05T09:35:24.240Z,46.78
2018-06-05T09:37:52.811Z,46.58
2018-06-05T09:40:21.209Z,46.39
2018-06-05T09:42:49.576Z,46.23
2018-06-05T09:45:17.931Z,46.20
2018-06-05T09:47:46.294Z,46.22
2018-06-05T09:50:14.657Z,46.13
2018-06-05T09:52:43.017Z,45.29
2018-06-05T09:55:11.375Z,45.73
2018-06-05T09:57:39.806Z,45.51
2018-06-05T10:00:08.106Z,45.32
2018-06-05T10:02:36.493Z,45.43
2018-06-05T10:05:05.012Z,45.09
2018-06-05T10:07:33.344Z,44.69
2018-06-05T10:10:01.679Z,43.79
2018-06-05T10:12:30.002Z,44.32
2018-06-05T10:14:58.339Z,43.39
2018-06-05T10:17:26.653Z,43.02
2018-06-05T10:19:54.494Z,42.97
2018-06-05T10:22:23.086Z,42.73
2018-06-05T10:24:51.105Z,42.32
2018-06-05T10:27:20.017Z,42.64
2018-06-05T10:29:48.323Z,42.58
2018-06-05T10:32:16.641Z,41.69
2018-06-05T10:34:45.301Z,41.37
2018-06-05T10:37:13.376Z,41.66
2018-06-05T10:39:41.676Z,41.86
2018-06-05T10:42:09.414Z,41.97
2018-06-05T10:44:38.348Z,41.55
2018-06-05T10:47:06.658Z,41.76
2018-06-05T10:49:35.015Z,41.44
2018-06-05T10:52:03.298Z,41.67
2018-06-05T10:54:31.690Z,41.71
2018-06-05T10:57:00.002Z,41.95
2018-06-05T10:59:28.334Z,41.27
2018-06-05T11:01:56.649Z,41.33
2018-06-05T11:04:24.975Z,41.07
2018-06-05T11:06:53.303Z,40.67
2018-06-05T11:09:21.296Z,40.19
2018-06-05T11:11:49.950Z,39.68
2018-06-05T11:14:18.295Z,39.66
2018-06-05T11:16:46.674Z,38.88
2018-06-05T11:19:14.989Z,38.76
2018-06-05T11:21:43.311Z,38.28
2018-06-05T11:24:11.633Z,38.39
2018-06-05T11:26:39.377Z,38.23
2018-06-05T11:29:08.278Z,38.04
2018-06-05T11:31:36.598Z,37.51
2018-06-05T11:34:04.918Z,37.33
2018-06-05T11:36:32.713Z,36.49
2018-06-05T11:39:01.612Z,35.51
2018-06-05T11:41:29.350Z,35.46
2018-06-05T11:43:58.263Z,35.83
2018-06-05T11:46:26.014Z,35.80
2018-06-05T11:48:55.227Z,36.10
2018-06-05T11:51:23.543Z,35.25
2018-06-05T11:53:52.427Z,35.02
2018-06-05T11:56:21.726Z,34.74
2018-06-05T11:58:51.326Z,34.56
2018-06-05T12:01:19.085Z,34.68
2018-06-05T12:03:48.264Z,33.78
2018-06-05T12:06:22.970Z,34.19
2018-06-05T12:09:08.826Z,33.91
2018-06-05T12:11:41.208Z,33.89
2018-06-05T12:14:09.483Z,34.05
2018-06-05T12:16:37.214Z,33.34
2018-06-05T12:19:16.618Z,33.24
2018-06-05T12:21:49.079Z,33.84
2018-06-05T12:30:27.690Z,33.26
2018-06-05T12:32:57.188Z,33.53
2018-06-05T12:35:25.502Z,34.02
2018-06-05T12:38:05.658Z,34.67
2018-06-05T12:40:34.010Z,34.42
2018-06-05T12:43:02.334Z,34.93
2018-06-05T12:45:33.934Z,35.87
2018-06-05T12:48:02.261Z,35.42
2018-06-05T12:50:30.584Z,35.86
2018-06-05T12:52:59.138Z,36.20
2018-06-05T12:55:27.232Z,36.48
2018-06-05T13:00:28.863Z,37.10
2018-06-05T13:02:57.201Z,37.60
2018-06-05T13:05:26.992Z,36.70
2018-06-05T13:07:55.550Z,36.98
2018-06-05T13:10:23.289Z,37.69
2018-06-05T13:12:53.275Z,37.63
2018-06-05T13:15:21.654Z,38.18
2018-06-05T13:17:49.998Z,39.06
2018-06-05T13:20:18.328Z,39.42
2018-06-05T13:22:46.743Z,39.88
2018-06-05T13:25:14.991Z,39.88
2018-06-05T13:27:43.313Z,40.15
2018-06-05T13:30:11.066Z,40.26
2018-06-05T13:32:39.961Z,40.57
2018-06-05T13:35:07.787Z,40.69
2018-06-05T13:40:04.979Z,41.49
2018-06-05T13:42:33.315Z,41.95
2018-06-05T13:45:02.045Z,42.07
2018-06-05T13:47:30.361Z,42.35
2018-06-05T13:49:58.691Z,42.22
2018-06-05T13:52:27.038Z,42.27
2018-06-05T13:54:55.342Z,42.31
2018-06-05T13:57:23.656Z,42.80
2018-06-05T13:59:51.986Z,42.96
2018-06-05T14:02:19.789Z,43.37
2018-06-05T14:04:48.720Z,43.46
2018-06-05T14:07:17.009Z,43.34
2018-06-05T14:09:45.542Z,43.52
2018-06-05T14:12:24.959Z,43.62
2018-06-05T14:15:04.753Z,43.22
2018-06-05T14:17:44.192Z,43.38
2018-06-05T14:23:26.337Z,44.06
2018-06-05T14:26:03.676Z,44.04
2018-06-05T14:28:44.465Z,44.32
2018-06-05T14:31:12.819Z,44.29
2018-06-05T14:34:01.770Z,44.60
2018-06-05T15:12:30.372Z,41.54
2018-06-05T15:14:58.888Z,42.08
2018-06-05T15:17:27.290Z,42.08
2018-06-05T15:19:55.625Z,41.90
2018-06-05T15:22:24.032Z,42.43
2018-06-05T15:24:52.064Z,42.27
2018-06-05T15:27:21.209Z,42.17
2018-06-05T15:29:50.011Z,42.38
2018-06-05T15:32:18.181Z,42.55
2018-06-05T15:34:46.590Z,42.50
2018-06-05T15:37:15.777Z,41.80
2018-06-05T15:39:43.563Z,40.86
2018-06-05T15:42:12.255Z,39.91
2018-06-05T15:44:40.788Z,38.78
2018-06-05T15:47:09.424Z,37.66
2018-06-05T15:49:44.991Z,37.36
2018-06-05T15:52:14.877Z,36.13
2018-06-05T15:54:42.982Z,35.79
2018-06-05T15:57:11.532Z,35.44
2018-06-05T15:59:40.897Z,35.06
2018-06-05T16:02:08.819Z,34.55
2018-06-05T16:04:37.469Z,33.67
2018-06-05T16:07:05.695Z,33.62
2018-06-05T16:09:35.423Z,33.70
2018-06-05T16:12:05.775Z,33.78
2018-06-05T16:14:34.126Z,34.13
2018-06-05T16:17:04.444Z,34.40
2018-06-05T16:19:37.525Z,35.29
2018-06-05T16:22:00.373Z,36.00
2018-06-05T16:24:29.115Z,36.85
2018-06-05T16:26:57.835Z,37.66
2018-06-05T16:29:26.604Z,38.19
2018-06-05T16:31:55.734Z,38.88
2018-06-05T16:34:24.224Z,39.26
2018-06-05T16:36:52.557Z,39.73
2018-06-05T16:39:20.903Z,40.35
2018-06-05T16:41:49.236Z,40.39
2018-06-05T16:44:17.609Z,40.72
2018-06-05T16:46:45.981Z,40.62
2018-06-05T16:49:17.715Z,39.90
2018-06-05T16:51:43.122Z,38.95
2018-06-05T16:54:11.471Z,37.86
2018-06-05T16:56:39.630Z,37.40
2018-06-05T16:59:09.867Z,36.81
2018-06-05T17:01:36.984Z,36.35
2018-06-05T17:04:04.871Z,36.10
2018-06-05T17:06:34.118Z,36.21
2018-06-05T17:09:02.267Z,36.18
2018-06-05T17:11:31.521Z,36.35
2018-06-05T17:13:59.539Z,36.76
2018-06-05T17:16:28.442Z,37.29
2018-06-05T17:18:59.571Z,37.79
2018-06-05T17:21:44.330Z,38.19
2018-06-05T17:23:56.953Z,38.06
2018-06-05T17:26:25.559Z,38.39
2018-06-05T17:28:53.741Z,38.67
2018-06-05T17:31:22.177Z,39.10
2018-06-05T17:33:50.543Z,40.17
2018-06-05T17:36:19.837Z,40.92
2018-06-05T17:38:47.300Z,41.36
2018-06-05T17:41:16.778Z,41.30
2018-06-05T17:43:44.225Z,40.97
2018-06-05T17:46:13.014Z,41.18
2018-06-05T17:48:41.388Z,41.46
2018-06-05T17:51:10.101Z,41.84
2018-06-05T17:53:37.907Z,41.66
2018-06-05T17:56:06.911Z,41.94
2018-06-05T17:58:36.745Z,42.20
2018-06-05T18:01:04.174Z,42.04
2018-06-05T18:03:32.607Z,42.53
2018-06-05T18:06:01.905Z,42.95
2018-06-05T18:08:30.558Z,43.23
2018-06-05T18:10:58.877Z,43.25
2018-06-05T18:13:27.229Z,43.28
2018-06-05T18:15:59.130Z,43.49
2018-06-05T18:18:28.304Z,43.61
2018-06-05T18:20:56.512Z,43.58
2018-06-05T18:23:25.740Z,43.58
2018-06-05T18:25:53.469Z,43.49
2018-06-05T18:28:21.800Z,43.52
2018-06-05T18:30:49.550Z,43.66
2018-06-05T18:33:18.474Z,43.82
2018-06-05T18:35:46.798Z,43.86
2018-06-05T18:38:15.449Z,43.89
2018-06-05T18:40:43.784Z,44.15
2018-06-05T18:43:12.634Z,44.24
2018-06-05T18:45:41.046Z,44.18
2018-06-05T18:48:09.499Z,44.23
2018-06-05T18:50:37.851Z,44.28
2018-06-05T18:53:06.197Z,44.28
2018-06-05T18:55:34.601Z,44.29
2018-06-05T18:58:03.156Z,44.39
2018-06-05T19:00:31.715Z,44.67
2018-06-05T19:03:00.354Z,44.78
2018-06-05T19:05:28.682Z,44.86
2018-06-05T19:07:57.053Z,44.67
2018-06-05T19:10:25.373Z,44.96
2018-06-05T19:12:55.076Z,45.18
2018-06-05T19:15:22.296Z,45.12
2018-06-05T19:17:50.441Z,45.14
2018-06-05T19:20:18.803Z,45.21
2018-06-05T19:22:47.356Z,45.04
2018-06-05T19:25:15.453Z,45.09
2018-06-05T19:27:43.201Z,45.18
2018-06-05T19:30:12.172Z,45.29
2018-06-05T19:32:40.595Z,45.43
2018-06-05T19:35:08.350Z,45.32
2018-06-05T19:37:37.255Z,44.98
2018-06-05T19:40:05.609Z,45.13
2018-06-05T19:42:33.932Z,45.18
2018-06-05T19:45:03.102Z,44.90
2018-06-05T19:47:32.637Z,44.92
2018-06-05T19:50:01.593Z,45.13
2018-06-05T19:52:33.043Z,45.04
2018-06-05T19:55:02.606Z,44.86
2018-06-05T19:57:30.891Z,44.73
2018-06-05T19:59:59.206Z,44.95
2018-06-05T20:02:27.534Z,44.99
2018-06-05T20:04:55.865Z,44.96
2018-06-05T20:07:24.187Z,44.75
2018-06-05T20:09:52.521Z,44.65
2018-06-05T20:12:20.882Z,44.63
2018-06-05T20:14:49.153Z,44.76
2018-06-05T20:17:17.479Z,44.79
2018-06-05T20:19:45.816Z,44.54
2018-06-05T20:22:14.147Z,44.64
2018-06-05T20:24:42.500Z,44.48
2018-06-05T20:27:10.806Z,44.33
2018-06-05T20:29:38.581Z,44.13
2018-06-05T20:32:07.496Z,44.06
2018-06-05T20:34:35.808Z,43.95
2018-06-05T20:37:04.136Z,43.90
2018-06-05T20:39:32.453Z,43.83
2018-06-05T20:42:00.201Z,43.53
2018-06-05T20:44:28.848Z,43.66
2018-06-05T20:46:57.495Z,43.82
2018-06-05T20:49:25.815Z,44.25
2018-06-05T20:51:54.144Z,44.39
2018-06-05T20:54:22.499Z,44.81
2018-06-05T20:56:50.777Z,44.67
2018-06-05T20:59:19.217Z,44.79
2018-06-05T21:01:47.625Z,44.84
2018-06-05T21:04:16.048Z,44.54
2018-06-05T21:06:44.373Z,44.54
2018-06-05T21:09:12.113Z,44.66
2018-06-05T21:11:41.032Z,44.73
2018-06-05T21:14:09.329Z,44.89
2018-06-05T21:16:37.652Z,44.93
2018-06-05T21:19:05.970Z,44.84
2018-06-05T21:21:44.882Z,45.19
2018-06-05T21:24:12.773Z,45.00
2018-06-05T21:29:24.276Z,45.81
2018-06-05T21:31:52.718Z,46.10
2018-06-05T21:34:21.038Z,46.06
2018-06-05T21:36:49.348Z,46.09
2018-06-05T21:39:17.084Z,46.15
2018-06-05T21:41:45.993Z,46.22
2018-06-05T21:44:14.359Z,46.04
2018-06-05T21:46:42.861Z,45.83
2018-06-05T21:49:11.178Z,45.77
2018-06-05T21:51:39.505Z,45.70
2018-06-05T21:54:07.244Z,46.01
2018-06-05T21:56:36.139Z,46.12
2018-06-05T21:59:04.458Z,45.99
2018-06-05T22:01:32.821Z,45.86
2018-06-05T22:04:01.218Z,45.85
2018-06-05T22:06:29.509Z,45.66
2018-06-05T22:08:57.847Z,45.37
2018-06-05T22:11:26.165Z,45.12
2018-06-05T22:13:54.485Z,45.01
2018-06-05T22:16:22.813Z,45.58
2018-06-05T22:18:51.186Z,45.67
2018-06-05T22:21:19.129Z,45.63
2018-06-05T22:23:48.096Z,45.72
2018-06-05T22:26:16.404Z,45.59
2018-06-05T22:28:44.931Z,45.64
2018-06-05T22:31:13.829Z,45.84
2018-06-05T22:33:42.151Z,46.90
2018-06-05T22:36:11.968Z,47.47
2018-06-05T22:38:43.964Z,48.00
2018-06-05T22:41:10.373Z,48.62
2018-06-05T22:43:39.456Z,49.61
2018-06-05T22:46:07.778Z,50.37
2018-06-05T22:48:35.521Z,50.71
2018-06-05T22:51:04.459Z,51.19
2018-06-05T22:53:32.300Z,51.78
2018-06-05T22:56:01.228Z,52.11
2018-06-05T22:58:30.518Z,52.23
2018-06-05T23:01:01.825Z,52.32
2018-06-05T23:03:29.695Z,52.46
2018-06-05T23:05:57.817Z,52.84
2018-06-05T23:08:26.906Z,53.09
2018-06-05T23:10:55.225Z,53.42
2018-06-05T23:13:23.553Z,53.59
2018-06-05T23:15:51.864Z,53.62
2018-06-05T23:18:20.252Z,53.64
2018-06-05T23:20:48.557Z,53.88
2018-06-05T23:23:16.886Z,54.07
2018-06-05T23:25:45.207Z,53.69
2018-06-05T23:28:13.533Z,53.25
2018-06-05T23:30:41.844Z,53.23
2018-06-05T23:33:10.689Z,53.46
2018-06-05T23:35:39.624Z,53.99
2018-06-05T23:38:07.975Z,54.44
2018-06-05T23:40:36.315Z,54.79
2018-06-05T23:43:04.646Z,55.17
2018-06-05T23:45:32.985Z,55.29
2018-06-05T23:48:01.328Z,55.53
2018-06-05T23:50:29.659Z,55.67
2018-06-05T23:52:58.111Z,55.99
2018-06-05T23:55:26.440Z,56.18
2018-06-05T23:57:54.771Z,56.52
